Davisville, Texas
Current Conditions -  °F | °C
As of 1:15 PM on Tuesday 21 Oct 2014 (Local Time) from KDKR Reporting Station
Clear Clear  
Wind Chill: 81°   Ceiling: Unl
Heat Index: 81°   Visibility: 10mi
Dew Point: 61°   Wind: 3mph
Humidity: 51%   Direction: 80°E
Pressure: 30.1"   Gusts: NA
Location:  31.2807°N, 95.8748°W
Report Text: KDKR 211815Z AUTO 08003KT 10SM CLR 27/16 A3010 RMK AO2
Loading
Personal Weather Stations






























Interactive Weather Map
Tropical Storm Tracking
New forecast layout! Learn more

10-Day Weather Forecast

Advertisements
Track Severe Weather on mobile